Huntington, West Virginia
Current Conditions -  °F | °C
As of 7:51 AM on Sunday 23 Nov 2014 (Local Time) from KHTS Reporting Station
Overcast Overcast  
Wind Chill: 43°   Ceiling: 10000
Heat Index: 46°   Visibility: 10mi
Dew Point: 31°   Wind: 6mph
Humidity: 56%   Direction: 100°E
Pressure: 30.04"   Gusts: NA
Location:  38.42°N, 82.44°W
Report Text: KHTS 231251Z 10005KT 10SM OVC100 08/M01 A3004 RMK AO2 SLP173 T00781006
Loading
Personal Weather Stations






























Interactive Weather Map New forecast layout! Learn more

10-Day Weather Forecast

Advertisements
Track Severe Weather on mobile